createdAt,value
2018-11-02T00:00:26.616Z,95.90
2018-11-02T00:02:29.694Z,96.10
2018-11-02T00:04:34.840Z,96.20
2018-11-02T00:06:37.872Z,96.80
2018-11-02T00:08:41.100Z,96.60
2018-11-02T00:10:44.181Z,96.90
2018-11-02T00:12:47.171Z,96.80
2018-11-02T00:14:50.195Z,96.90
2018-11-02T00:16:53.422Z,96.70
2018-11-02T00:18:56.687Z,96.90
2018-11-02T00:20:59.873Z,97.20
2018-11-02T00:23:04.868Z,96.40
2018-11-02T00:25:07.890Z,97.00
2018-11-02T00:27:11.104Z,97.10
2018-11-02T00:29:14.125Z,97.30
2018-11-02T00:31:17.192Z,96.70
2018-11-02T00:33:20.259Z,96.70
2018-11-02T00:35:23.282Z,97.20
2018-11-02T00:37:26.298Z,97.10
2018-11-02T00:39:29.355Z,97.30
2018-11-02T00:41:34.085Z,96.70
2018-11-02T00:43:37.162Z,96.80
2018-11-02T00:45:40.169Z,97.40
2018-11-02T00:47:43.344Z,97.60
2018-11-02T00:49:46.318Z,97.60
2018-11-02T00:51:49.346Z,97.50
2018-11-02T00:53:52.360Z,97.40
2018-11-02T00:55:55.394Z,97.00
2018-11-02T00:57:58.376Z,96.90
2018-11-02T01:00:01.443Z,96.80
2018-11-02T01:02:05.142Z,97.20
2018-11-02T01:04:08.198Z,97.50
2018-11-02T01:06:11.204Z,98.20
2018-11-02T01:08:14.239Z,97.60
2018-11-02T01:10:17.282Z,98.10
2018-11-02T01:12:20.523Z,98.20
2018-11-02T01:14:23.522Z,97.50
2018-11-02T01:16:26.589Z,97.30
2018-11-02T01:18:29.699Z,97.80
2018-11-02T01:20:34.119Z,97.50
2018-11-02T01:22:37.146Z,97.60
2018-11-02T01:24:40.158Z,97.30
2018-11-02T01:26:43.187Z,97.40
2018-11-02T01:28:46.196Z,98.10
2018-11-02T01:30:49.146Z,97.70
2018-11-02T01:32:52.176Z,97.80
2018-11-02T01:34:55.202Z,97.60
2018-11-02T01:36:58.310Z,97.80
2018-11-02T01:39:01.361Z,97.80
2018-11-02T01:41:04.691Z,98.10
2018-11-02T01:43:07.681Z,97.90
2018-11-02T01:45:10.690Z,97.50
2018-11-02T01:47:13.837Z,98.10
2018-11-02T01:49:16.871Z,97.70
2018-11-02T01:51:19.859Z,97.70
2018-11-02T01:53:22.951Z,97.60
2018-11-02T01:55:25.963Z,97.60
2018-11-02T01:57:29.005Z,98.10
2018-11-02T01:59:34.036Z,98.40
2018-11-02T02:01:37.063Z,98.50
2018-11-02T02:03:40.115Z,98.90
2018-11-02T02:05:43.125Z,99.00
2018-11-02T02:07:46.190Z,97.80
2018-11-02T02:09:49.236Z,97.30
2018-11-02T02:11:52.442Z,97.80
2018-11-02T02:13:55.589Z,97.90
2018-11-02T02:15:58.963Z,97.70
2018-11-02T02:18:03.599Z,97.80
2018-11-02T02:20:07.228Z,97.70
2018-11-02T02:22:10.591Z,98.00
2018-11-02T02:24:13.609Z,97.40
2018-11-02T02:26:16.652Z,98.20
2018-11-02T02:28:19.738Z,98.30
2018-11-02T02:30:22.828Z,98.20
2018-11-02T02:32:25.880Z,98.30
2018-11-02T02:34:28.905Z,98.40
2018-11-02T02:36:33.484Z,98.70
2018-11-02T02:38:36.856Z,98.60
2018-11-02T02:40:39.863Z,98.30
2018-11-02T02:42:42.870Z,98.00
2018-11-02T02:44:45.899Z,98.20
2018-11-02T02:46:48.899Z,98.20
2018-11-02T02:48:51.958Z,98.70
2018-11-02T02:50:55.031Z,98.70
2018-11-02T02:52:58.052Z,98.70
2018-11-02T02:55:01.112Z,98.80
2018-11-02T02:57:05.900Z,98.90
2018-11-02T02:59:08.944Z,99.70
2018-11-02T03:01:11.969Z,99.70
2018-11-02T03:03:15.124Z,99.70
2018-11-02T03:05:18.139Z,99.30
2018-11-02T03:07:21.117Z,99.60
2018-11-02T03:09:24.160Z,99.50
2018-11-02T03:11:27.192Z,99.70
2018-11-02T03:13:30.219Z,99.30
2018-11-02T03:15:35.075Z,99.40
2018-11-02T03:17:38.138Z,99.50
2018-11-02T03:19:41.192Z,99.30
2018-11-02T03:21:44.237Z,99.30
2018-11-02T03:23:47.687Z,99.30
2018-11-02T03:25:50.696Z,99.00
2018-11-02T03:27:53.696Z,99.00
2018-11-02T03:29:56.667Z,99.00
2018-11-02T03:31:59.687Z,98.90
2018-11-02T03:34:04.425Z,98.90
2018-11-02T03:36:07.568Z,98.80
2018-11-02T03:38:10.601Z,98.70
2018-11-02T03:40:13.601Z,98.50
2018-11-02T03:42:18.392Z,98.50
2018-11-02T03:44:21.408Z,98.60
2018-11-02T03:46:24.453Z,98.60
2018-11-02T03:48:27.518Z,98.50
2018-11-02T03:50:30.540Z,98.40
2018-11-02T03:52:35.008Z,98.30
2018-11-02T03:54:38.072Z,98.30
2018-11-02T03:56:41.098Z,98.30
2018-11-02T03:58:44.114Z,98.10
2018-11-02T04:00:47.116Z,98.20
2018-11-02T04:02:50.100Z,98.10
2018-11-02T04:04:53.114Z,98.30
2018-11-02T04:06:56.446Z,98.20
2018-11-02T04:08:59.464Z,98.40
2018-11-02T04:11:03.785Z,98.40
2018-11-02T04:13:06.774Z,98.10
2018-11-02T04:15:09.804Z,98.20
2018-11-02T04:17:13.049Z,98.10
2018-11-02T04:19:16.076Z,98.00
2018-11-02T04:21:19.112Z,97.90
2018-11-02T04:23:22.284Z,97.90
2018-11-02T04:25:25.304Z,98.10
2018-11-02T04:27:28.626Z,98.10
2018-11-02T04:29:33.155Z,98.00
2018-11-02T04:31:36.389Z,98.00
2018-11-02T04:33:39.401Z,97.80
2018-11-02T04:35:42.418Z,98.00
2018-11-02T04:37:45.455Z,98.30
2018-11-02T04:39:48.464Z,97.90
2018-11-02T04:41:51.650Z,98.00
2018-11-02T04:43:54.654Z,98.10
2018-11-02T04:45:57.693Z,97.80
2018-11-02T04:48:01.140Z,97.60
2018-11-02T04:50:07.457Z,97.40
2018-11-02T04:52:10.442Z,97.60
2018-11-02T04:54:13.645Z,97.50
2018-11-02T04:56:16.624Z,97.60
2018-11-02T04:58:19.646Z,97.50
2018-11-02T05:00:22.663Z,97.60
2018-11-02T05:02:25.716Z,97.60
2018-11-02T05:04:28.740Z,97.60
2018-11-02T05:06:33.332Z,97.50
2018-11-02T05:08:36.459Z,97.60
2018-11-02T05:10:39.450Z,97.40
2018-11-02T05:12:42.452Z,97.60
2018-11-02T05:14:45.512Z,97.50
2018-11-02T05:16:48.573Z,98.10
2018-11-02T05:18:51.553Z,97.60
2018-11-02T05:20:54.600Z,97.50
2018-11-02T05:22:57.711Z,97.30
2018-11-02T05:25:00.686Z,97.50
2018-11-02T05:27:05.005Z,97.90
2018-11-02T05:29:09.069Z,98.40
2018-11-02T05:31:12.070Z,97.90
2018-11-02T05:33:15.158Z,97.50
2018-11-02T05:35:18.237Z,97.50
2018-11-02T05:37:21.258Z,97.90
2018-11-02T05:39:24.271Z,97.80
2018-11-02T05:41:27.282Z,98.00
2018-11-02T05:43:30.266Z,97.90
2018-11-02T05:45:34.825Z,98.10
2018-11-02T05:47:37.945Z,98.20
2018-11-02T05:49:40.934Z,98.00
2018-11-02T05:51:43.936Z,97.90
2018-11-02T05:53:47.004Z,98.10
2018-11-02T05:55:49.977Z,98.20
2018-11-02T05:57:52.987Z,98.20
2018-11-02T05:59:56.348Z,98.20
2018-11-02T06:01:59.356Z,98.10
2018-11-02T06:04:03.878Z,98.10
2018-11-02T06:06:07.223Z,98.10
2018-11-02T06:08:10.232Z,98.30
2018-11-02T06:10:13.239Z,98.10
2018-11-02T06:12:16.439Z,97.90
2018-11-02T06:14:19.507Z,97.90
2018-11-02T06:16:22.508Z,97.80
2018-11-02T06:18:25.862Z,97.80
2018-11-02T06:20:28.886Z,98.40
2018-11-02T06:22:33.549Z,98.30
2018-11-02T06:24:36.637Z,98.40
2018-11-02T06:26:39.675Z,98.20
2018-11-02T06:28:42.730Z,98.20
2018-11-02T06:30:45.911Z,98.50
2018-11-02T06:32:49.053Z,98.30
2018-11-02T06:34:51.882Z,98.40
2018-11-02T06:36:55.185Z,98.30
2018-11-02T06:38:58.604Z,98.30
2018-11-02T06:41:01.573Z,98.40
2018-11-02T06:43:06.135Z,98.50
2018-11-02T06:45:10.085Z,98.50
2018-11-02T06:47:13.156Z,98.50
2018-11-02T06:49:16.424Z,98.60
2018-11-02T06:51:19.451Z,98.50
2018-11-02T06:53:22.449Z,98.60
2018-11-02T06:55:25.461Z,98.70
2018-11-02T06:57:28.509Z,98.70
2018-11-02T06:59:31.745Z,98.80
2018-11-02T07:01:35.624Z,98.80
2018-11-02T07:03:38.664Z,98.80
2018-11-02T07:05:41.654Z,98.50
2018-11-02T07:07:45.138Z,98.30
2018-11-02T07:09:48.120Z,98.10
2018-11-02T07:11:51.151Z,97.90
2018-11-02T07:13:54.224Z,97.60
2018-11-02T07:15:57.379Z,97.40
2018-11-02T07:18:00.380Z,97.20
2018-11-02T07:20:05.353Z,97.10
2018-11-02T07:22:08.384Z,97.10
2018-11-02T07:24:11.433Z,96.70
2018-11-02T07:26:14.501Z,96.70
2018-11-02T07:28:17.537Z,96.80
2018-11-02T07:30:20.603Z,96.90
2018-11-02T07:32:23.628Z,97.00
2018-11-02T07:34:26.702Z,97.10
2018-11-02T07:36:29.612Z,97.10
2018-11-02T07:38:34.454Z,97.10
2018-11-02T07:40:37.465Z,97.10
2018-11-02T07:42:41.061Z,97.10
2018-11-02T07:44:44.068Z,97.10
2018-11-02T07:46:47.148Z,97.00
2018-11-02T07:48:50.227Z,97.10
2018-11-02T07:50:53.264Z,97.00
2018-11-02T07:52:56.603Z,97.10
2018-11-02T07:54:59.617Z,97.10
2018-11-02T07:57:04.539Z,96.80
2018-11-02T07:59:07.641Z,96.50
2018-11-02T08:01:10.639Z,96.50
2018-11-02T08:03:13.612Z,96.60
2018-11-02T08:05:16.671Z,96.10
2018-11-02T08:07:19.777Z,96.20
2018-11-02T08:09:22.788Z,96.10
2018-11-02T08:11:25.861Z,96.20
2018-11-02T08:13:28.836Z,95.80
2018-11-02T08:15:33.475Z,96.10
2018-11-02T08:17:37.295Z,96.00
2018-11-02T08:19:40.214Z,95.90
2018-11-02T08:21:43.213Z,95.10
2018-11-02T08:23:46.575Z,94.50
2018-11-02T08:25:49.582Z,94.10
2018-11-02T08:27:52.602Z,93.50
2018-11-02T08:29:55.587Z,93.60
2018-11-02T08:31:58.672Z,93.60
2018-11-02T08:34:03.413Z,93.40
2018-11-02T08:36:06.403Z,93.40
2018-11-02T08:38:09.421Z,93.30
2018-11-02T08:40:13.155Z,93.30
2018-11-02T08:42:16.172Z,93.40
2018-11-02T08:44:19.156Z,92.80
2018-11-02T08:46:22.213Z,92.90
2018-11-02T08:48:25.178Z,92.70
2018-11-02T08:50:28.610Z,92.50
2018-11-02T08:52:31.610Z,92.10
2018-11-02T08:54:36.308Z,91.90
2018-11-02T08:56:39.334Z,91.40
2018-11-02T08:58:42.499Z,90.80
2018-11-02T09:00:45.421Z,90.30
2018-11-02T09:02:48.484Z,90.20
2018-11-02T09:04:51.508Z,90.60
2018-11-02T09:06:54.562Z,90.00
2018-11-02T09:08:57.580Z,87.30
2018-11-02T09:11:00.593Z,88.70
2018-11-02T09:13:04.797Z,88.50
2018-11-02T09:15:07.817Z,87.70
2018-11-02T09:17:10.918Z,87.20
2018-11-02T09:19:14.012Z,87.80
2018-11-02T09:21:17.004Z,87.80
2018-11-02T09:23:20.011Z,87.60
2018-11-02T09:25:23.082Z,87.90
2018-11-02T09:27:26.146Z,88.10
2018-11-02T09:29:29.181Z,86.20
2018-11-02T09:31:34.076Z,86.30
2018-11-02T09:33:37.124Z,85.70
2018-11-02T09:35:40.130Z,86.70
2018-11-02T09:37:43.514Z,84.70
2018-11-02T09:39:46.600Z,85.60
2018-11-02T09:41:49.642Z,86.40
2018-11-02T09:43:52.706Z,86.10
2018-11-02T09:45:55.809Z,85.30
2018-11-02T09:47:58.894Z,84.20
2018-11-02T09:50:03.614Z,84.70
2018-11-02T09:52:06.878Z,83.00
2018-11-02T09:54:09.769Z,83.10
2018-11-02T09:56:12.795Z,84.60
2018-11-02T09:58:15.906Z,82.00
2018-11-02T10:00:18.985Z,83.40
2018-11-02T10:02:22.021Z,82.70
2018-11-02T10:04:25.096Z,81.10
2018-11-02T10:06:28.148Z,81.70
2018-11-02T10:08:31.288Z,82.70
2018-11-02T10:10:36.018Z,81.40
2018-11-02T10:12:39.119Z,81.30
2018-11-02T10:14:42.194Z,80.10
2018-11-02T10:16:45.695Z,79.20
2018-11-02T10:18:48.760Z,77.90
2018-11-02T10:20:51.815Z,79.70
2018-11-02T10:22:54.849Z,78.30
2018-11-02T10:24:58.200Z,79.10
2018-11-02T10:27:01.288Z,78.80
2018-11-02T10:29:05.682Z,78.90
2018-11-02T10:31:08.784Z,77.60
2018-11-02T10:33:11.815Z,78.00
2018-11-02T10:35:14.888Z,78.30
2018-11-02T10:37:17.983Z,78.30
2018-11-02T10:39:21.056Z,78.60
2018-11-02T10:41:30.598Z,78.80
2018-11-02T10:43:34.890Z,78.90
2018-11-02T10:45:41.835Z,78.20
2018-11-02T10:47:45.915Z,78.70
2018-11-02T10:49:49.028Z,78.50
2018-11-02T10:51:52.038Z,78.90
2018-11-02T10:53:55.182Z,78.80
2018-11-02T10:55:58.234Z,77.40
2018-11-02T10:58:01.298Z,78.20
2018-11-02T11:00:14.277Z,77.30
2018-11-02T11:02:23.218Z,77.60
2018-11-02T11:04:26.254Z,77.10
2018-11-02T11:06:29.640Z,77.40
2018-11-02T11:08:33.979Z,77.30
2018-11-02T11:10:37.038Z,77.20
2018-11-02T11:12:41.162Z,77.10
2018-11-02T11:14:44.070Z,76.40
2018-11-02T11:16:47.147Z,77.00
2018-11-02T11:18:50.222Z,77.10
2018-11-02T11:20:53.310Z,76.80
2018-11-02T11:22:56.359Z,77.40
2018-11-02T11:24:59.458Z,77.30
2018-11-02T11:27:03.921Z,77.10
2018-11-02T11:29:07.470Z,77.30
2018-11-02T11:31:10.556Z,76.70
2018-11-02T11:33:13.639Z,75.80
2018-11-02T11:35:17.560Z,74.30
2018-11-02T11:37:20.701Z,76.00
2018-11-02T11:39:23.841Z,75.10
2018-11-02T11:41:26.874Z,73.30
2018-11-02T11:43:30.059Z,72.80
2018-11-02T11:45:34.279Z,72.50
2018-11-02T11:47:37.828Z,72.50
2018-11-02T11:49:40.958Z,73.20
2018-11-02T11:51:44.036Z,72.30
2018-11-02T11:53:47.140Z,73.40
2018-11-02T11:55:50.185Z,73.50
2018-11-02T11:57:53.625Z,73.50
2018-11-02T11:59:56.741Z,73.20
2018-11-02T12:01:59.795Z,73.10
2018-11-02T12:04:04.844Z,72.30
2018-11-02T12:06:07.992Z,72.50
2018-11-02T12:08:11.138Z,72.70
2018-11-02T12:10:16.924Z,72.20
2018-11-02T12:12:19.998Z,72.60
2018-11-02T12:14:23.010Z,71.30
2018-11-02T12:16:26.133Z,71.20
2018-11-02T12:18:29.192Z,70.50
2018-11-02T12:20:33.885Z,70.00
2018-11-02T12:22:37.003Z,68.70
2018-11-02T12:24:40.209Z,69.00
2018-11-02T12:26:43.212Z,69.00
2018-11-02T12:28:46.288Z,69.20
2018-11-02T12:30:49.395Z,69.60
2018-11-02T12:32:52.332Z,68.60
2018-11-02T12:34:55.360Z,68.50
2018-11-02T12:36:58.398Z,69.00
2018-11-02T12:39:01.317Z,69.60
2018-11-02T12:41:05.750Z,68.50
2018-11-02T12:43:08.784Z,68.60
2018-11-02T12:45:14.182Z,67.80
2018-11-02T12:47:17.227Z,67.90
2018-11-02T12:49:20.512Z,66.50
2018-11-02T12:51:23.284Z,66.30
2018-11-02T12:53:26.284Z,66.10
2018-11-02T12:55:29.284Z,65.70
2018-11-02T12:57:34.275Z,66.70
2018-11-02T12:59:37.279Z,65.70
2018-11-02T13:01:40.312Z,66.10
2018-11-02T13:03:43.443Z,66.30
2018-11-02T13:05:46.474Z,67.10
2018-11-02T13:07:49.533Z,67.90
2018-11-02T13:09:52.621Z,67.80
2018-11-02T13:11:55.593Z,68.50
2018-11-02T13:13:58.909Z,68.10
2018-11-02T13:16:03.592Z,67.60
2018-11-02T13:18:06.533Z,68.60
2018-11-02T13:20:10.124Z,69.20
2018-11-02T13:22:13.092Z,65.20
2018-11-02T13:24:16.139Z,65.00
2018-11-02T13:26:19.327Z,65.20
2018-11-02T13:28:22.369Z,62.40
2018-11-02T13:30:25.429Z,62.20
2018-11-02T13:32:28.348Z,63.30
2018-11-02T13:34:31.333Z,63.10
2018-11-02T13:36:35.618Z,63.10
2018-11-02T13:38:38.394Z,63.90
2018-11-02T13:40:41.448Z,63.20
2018-11-02T13:42:44.575Z,63.20
2018-11-02T13:44:47.593Z,63.90
2018-11-02T13:46:50.693Z,63.60
2018-11-02T13:48:53.719Z,62.90
2018-11-02T13:50:56.720Z,63.90
2018-11-02T13:52:59.784Z,64.50
2018-11-02T13:55:04.508Z,64.70
2018-11-02T13:57:07.873Z,66.10
2018-11-02T13:59:10.933Z,64.80
2018-11-02T14:01:14.027Z,65.60
2018-11-02T14:03:17.064Z,65.30
2018-11-02T14:05:20.065Z,64.20
2018-11-02T14:07:23.122Z,64.00
2018-11-02T14:09:26.269Z,63.70
2018-11-02T14:11:29.596Z,64.90
2018-11-02T14:13:32.938Z,65.20
2018-11-02T14:15:36.003Z,64.70
2018-11-02T14:17:39.616Z,63.80
2018-11-02T14:19:42.716Z,64.90
2018-11-02T14:21:45.834Z,64.80
2018-11-02T14:23:49.236Z,65.00
2018-11-02T14:25:52.232Z,65.20
2018-11-02T14:27:55.314Z,66.50
2018-11-02T14:29:58.405Z,66.30
2018-11-02T14:32:01.527Z,66.70
2018-11-02T14:34:05.836Z,67.30
2018-11-02T14:36:08.922Z,68.30
2018-11-02T14:38:11.975Z,68.30
2018-11-02T14:40:15.054Z,68.00
2018-11-02T14:42:18.054Z,67.40
2018-11-02T14:44:21.104Z,67.20
2018-11-02T14:46:24.228Z,67.50
2018-11-02T14:48:27.295Z,67.70
2018-11-02T14:50:30.398Z,68.40
2018-11-02T14:52:35.159Z,68.60
2018-11-02T14:54:38.189Z,68.90
2018-11-02T14:56:41.254Z,69.10
2018-11-02T14:58:44.332Z,69.30
2018-11-02T15:00:47.479Z,69.80
2018-11-02T15:02:50.921Z,70.30
2018-11-02T15:04:54.103Z,71.00
2018-11-02T15:06:57.161Z,71.30
2018-11-02T15:09:00.317Z,71.50
2018-11-02T15:11:05.255Z,71.70
2018-11-02T15:13:08.278Z,72.50
2018-11-02T15:15:11.350Z,72.10
2018-11-02T15:17:14.761Z,72.60
2018-11-02T15:19:17.793Z,73.10
2018-11-02T15:21:20.837Z,73.10
2018-11-02T15:23:23.991Z,73.00
2018-11-02T15:25:27.041Z,73.00
2018-11-02T15:27:30.103Z,73.10
2018-11-02T15:29:34.905Z,73.50
2018-11-02T15:31:38.017Z,74.10
2018-11-02T15:33:41.341Z,73.60
2018-11-02T15:35:44.397Z,73.40
2018-11-02T15:37:47.762Z,73.20
2018-11-02T15:39:50.745Z,73.90
2018-11-02T15:41:53.803Z,73.30
2018-11-02T15:43:56.971Z,74.00
2018-11-02T15:46:00.043Z,74.30
2018-11-02T15:48:04.186Z,74.50
2018-11-02T15:50:08.829Z,75.60
2018-11-02T15:52:13.236Z,75.20
2018-11-02T15:54:16.256Z,74.90
2018-11-02T15:56:19.377Z,74.80
2018-11-02T15:58:22.482Z,74.80
2018-11-02T16:00:25.598Z,74.70
2018-11-02T16:02:28.680Z,75.30
2018-11-02T16:04:33.546Z,74.80
2018-11-02T16:06:36.599Z,75.60
2018-11-02T16:08:39.644Z,75.50
2018-11-02T16:10:42.887Z,76.30
2018-11-02T16:12:46.517Z,76.00
2018-11-02T16:14:49.581Z,76.10
2018-11-02T16:16:52.967Z,76.30
2018-11-02T16:18:56.173Z,76.50
2018-11-02T16:20:59.276Z,76.40
2018-11-02T16:23:04.190Z,77.50
2018-11-02T16:25:07.368Z,77.10
2018-11-02T16:27:10.473Z,78.50
2018-11-02T16:29:13.576Z,78.40
2018-11-02T16:31:16.618Z,79.00
2018-11-02T16:33:20.067Z,80.50
2018-11-02T16:35:23.116Z,81.90
2018-11-02T16:37:26.914Z,80.90
2018-11-02T16:39:30.324Z,79.70
2018-11-02T16:41:35.037Z,80.40
2018-11-02T16:43:38.128Z,80.50
2018-11-02T16:45:41.165Z,80.90
2018-11-02T16:47:44.504Z,82.10
2018-11-02T16:49:47.475Z,81.80
2018-11-02T16:51:50.551Z,82.10
2018-11-02T16:53:53.660Z,80.90
2018-11-02T16:55:56.771Z,81.40
2018-11-02T16:57:59.880Z,82.40
2018-11-02T17:00:03.888Z,81.50
2018-11-02T17:02:07.025Z,87.20
2018-11-02T17:04:10.272Z,84.10
2018-11-02T17:06:13.501Z,84.70
2018-11-02T17:08:16.420Z,85.60
2018-11-02T17:10:19.498Z,85.40
2018-11-02T17:12:22.544Z,84.60
2018-11-02T17:14:25.578Z,84.10
2018-11-02T17:16:28.699Z,84.40
2018-11-02T17:18:33.406Z,83.90
2018-11-02T17:20:36.541Z,84.60
2018-11-02T17:22:39.693Z,83.70
2018-11-02T17:24:42.795Z,85.20
2018-11-02T17:26:45.866Z,86.00
2018-11-02T17:28:48.987Z,85.40
2018-11-02T17:30:52.085Z,85.50
2018-11-02T17:32:55.136Z,86.30
2018-11-02T17:34:58.167Z,86.90
2018-11-02T17:37:01.231Z,86.90
2018-11-02T17:39:08.709Z,87.30
2018-11-02T17:41:11.852Z,90.90
2018-11-02T17:43:14.981Z,91.70
2018-11-02T17:45:18.053Z,90.70
2018-11-02T17:47:21.107Z,90.50
2018-11-02T17:49:24.242Z,91.40
2018-11-02T17:51:27.278Z,91.10
2018-11-02T17:53:30.363Z,90.80
2018-11-02T17:55:34.676Z,91.90
2018-11-02T17:57:37.692Z,91.00
2018-11-02T17:59:40.763Z,90.90
2018-11-02T18:01:44.049Z,91.00
2018-11-02T18:03:47.101Z,91.50
2018-11-02T18:05:50.169Z,91.50
2018-11-02T18:07:53.332Z,91.00
2018-11-02T18:09:56.372Z,91.10
2018-11-02T18:11:59.445Z,91.40
2018-11-02T18:14:04.333Z,91.30
2018-11-02T18:16:07.378Z,91.60
2018-11-02T18:18:10.525Z,92.30
2018-11-02T18:20:15.198Z,92.70
2018-11-02T18:22:18.387Z,93.20
2018-11-02T18:24:21.473Z,92.70
2018-11-02T18:26:24.509Z,92.50
2018-11-02T18:28:27.562Z,91.30
2018-11-02T18:30:30.661Z,91.80
2018-11-02T18:32:35.684Z,91.80
2018-11-02T18:34:38.699Z,91.60
2018-11-02T18:36:41.792Z,92.10
2018-11-02T18:38:44.888Z,92.10
2018-11-02T18:40:47.946Z,90.90
2018-11-02T18:42:50.953Z,91.80
2018-11-02T18:44:54.007Z,91.30
2018-11-02T18:46:57.022Z,91.30
2018-11-02T18:49:00.571Z,91.30
2018-11-02T18:51:05.185Z,92.50
2018-11-02T18:53:08.184Z,93.40
2018-11-02T18:55:11.208Z,92.60
2018-11-02T18:57:14.358Z,92.60
2018-11-02T18:59:17.429Z,94.10
2018-11-02T19:01:20.542Z,92.80
2018-11-02T19:03:23.590Z,93.70
2018-11-02T19:05:26.635Z,92.30
2018-11-02T19:07:29.669Z,93.10
2018-11-02T19:09:34.417Z,93.80
2018-11-02T19:11:38.875Z,93.30
2018-11-02T19:13:42.126Z,92.40
2018-11-02T19:15:45.238Z,93.10
2018-11-02T19:17:48.254Z,92.50
2018-11-02T19:19:51.427Z,92.50
2018-11-02T19:21:54.381Z,93.30
2018-11-02T19:23:57.475Z,93.80
2018-11-02T19:26:00.569Z,94.20
2018-11-02T19:28:04.987Z,93.60
2018-11-02T19:30:10.634Z,93.20
2018-11-02T19:32:13.827Z,92.80
2018-11-02T19:34:16.915Z,93.50
2018-11-02T19:36:20.359Z,93.00
2018-11-02T19:38:23.533Z,93.80
2018-11-02T19:40:26.514Z,93.50
2018-11-02T19:42:29.732Z,93.10
2018-11-02T19:44:34.205Z,93.40
2018-11-02T19:46:37.283Z,93.70
2018-11-02T19:48:40.410Z,92.90
2018-11-02T19:50:43.575Z,93.90
2018-11-02T19:52:46.532Z,93.20
2018-11-02T19:54:49.589Z,93.70
2018-11-02T19:56:52.712Z,93.60
2018-11-02T19:58:55.846Z,93.20
2018-11-02T20:00:58.905Z,93.00
2018-11-02T20:03:03.369Z,94.10
2018-11-02T20:05:08.746Z,95.30
2018-11-02T20:07:11.873Z,95.00
2018-11-02T20:09:15.023Z,95.00
2018-11-02T20:11:18.137Z,94.50
2018-11-02T20:13:21.179Z,93.80
2018-11-02T20:15:24.229Z,94.30
2018-11-02T20:17:27.267Z,95.20
2018-11-02T20:19:30.359Z,95.50
2018-11-02T20:21:35.257Z,94.00
2018-11-02T20:23:38.316Z,93.90
2018-11-02T20:25:41.487Z,94.10
2018-11-02T20:27:44.585Z,93.80
2018-11-02T20:29:47.697Z,93.40
2018-11-02T20:31:50.900Z,93.60
2018-11-02T20:33:53.912Z,93.80
2018-11-02T20:35:56.997Z,93.70
2018-11-02T20:38:00.107Z,93.40
2018-11-02T20:40:05.761Z,94.40
2018-11-02T20:42:08.988Z,94.00
2018-11-02T20:44:12.086Z,93.30
2018-11-02T20:46:15.167Z,93.50
2018-11-02T20:48:18.237Z,93.20
2018-11-02T20:50:21.380Z,94.10
2018-11-02T20:52:24.365Z,94.10
2018-11-02T20:54:27.478Z,93.60
2018-11-02T20:56:30.720Z,94.80
2018-11-02T20:58:35.607Z,94.20
2018-11-02T21:00:38.709Z,93.70
2018-11-02T21:02:42.386Z,93.80
2018-11-02T21:04:45.330Z,93.60
2018-11-02T21:06:48.472Z,94.10
2018-11-02T21:08:51.545Z,93.60
2018-11-02T21:10:54.517Z,93.50
2018-11-02T21:12:57.676Z,95.50
2018-11-02T21:15:00.838Z,95.70
2018-11-02T21:17:05.732Z,94.90
2018-11-02T21:19:08.782Z,94.40
2018-11-02T21:21:12.003Z,93.70
2018-11-02T21:23:14.988Z,94.50
2018-11-02T21:25:18.172Z,94.20
2018-11-02T21:27:21.287Z,94.30
2018-11-02T21:29:24.339Z,94.70
2018-11-02T21:31:27.677Z,94.30
2018-11-02T21:33:30.839Z,95.30
2018-11-02T21:35:35.616Z,95.50
2018-11-02T21:37:38.962Z,94.80
2018-11-02T21:39:42.009Z,94.60
2018-11-02T21:41:45.249Z,94.60
2018-11-02T21:43:48.457Z,94.20
2018-11-02T21:45:51.649Z,93.80
2018-11-02T21:47:54.793Z,93.80
2018-11-02T21:49:57.820Z,94.00
2018-11-02T21:52:00.875Z,94.40
2018-11-02T21:54:05.468Z,94.40
2018-11-02T21:56:08.584Z,95.00
2018-11-02T21:58:11.776Z,95.50
2018-11-02T22:00:15.708Z,95.70
2018-11-02T22:02:18.785Z,96.10
2018-11-02T22:04:21.862Z,95.20
2018-11-02T22:06:24.919Z,94.60
2018-11-02T22:08:27.941Z,96.20
2018-11-02T22:10:31.392Z,96.10
2018-11-02T22:12:35.779Z,95.60
2018-11-02T22:14:38.890Z,96.40
2018-11-02T22:16:42.022Z,96.10
2018-11-02T22:18:45.119Z,95.80
2018-11-02T22:20:48.147Z,95.40
2018-11-02T22:22:51.232Z,95.50
2018-11-02T22:24:54.372Z,95.40
2018-11-02T22:26:58.816Z,95.20
2018-11-02T22:29:03.314Z,95.50
2018-11-02T22:31:06.353Z,95.50
2018-11-02T22:33:09.491Z,96.10
2018-11-02T22:35:13.197Z,96.80
2018-11-02T22:37:16.299Z,96.70
2018-11-02T22:39:19.381Z,97.00
2018-11-02T22:41:22.624Z,96.20
2018-11-02T22:43:25.659Z,95.90
2018-11-02T22:45:28.800Z,95.60
2018-11-02T22:47:33.343Z,96.00
2018-11-02T22:49:36.568Z,96.50
2018-11-02T22:51:39.869Z,96.00
2018-11-02T22:53:42.872Z,95.60
2018-11-02T22:55:46.142Z,95.90
2018-11-02T22:57:49.559Z,95.30
2018-11-02T22:59:52.821Z,95.70
2018-11-02T23:01:55.984Z,95.20
2018-11-02T23:04:00.849Z,96.40
2018-11-02T23:06:05.839Z,95.90
2018-11-02T23:08:12.464Z,95.80
2018-11-02T23:10:16.270Z,95.60
2018-11-02T23:12:19.407Z,95.50
2018-11-02T23:14:22.509Z,96.50
2018-11-02T23:16:25.629Z,96.50
2018-11-02T23:18:28.752Z,96.40
2018-11-02T23:20:33.541Z,96.10
2018-11-02T23:22:36.898Z,95.50
2018-11-02T23:24:40.057Z,96.40
2018-11-02T23:26:43.126Z,97.00
2018-11-02T23:28:46.256Z,97.00
2018-11-02T23:30:49.276Z,95.50
2018-11-02T23:32:52.435Z,95.60
2018-11-02T23:34:55.717Z,96.80
2018-11-02T23:36:58.805Z,96.90
2018-11-02T23:39:03.632Z,96.90
2018-11-02T23:41:07.068Z,96.90
2018-11-02T23:43:10.232Z,96.50
2018-11-02T23:45:13.348Z,95.90
2018-11-02T23:47:16.712Z,96.20
2018-11-02T23:49:19.706Z,96.20
2018-11-02T23:51:22.785Z,96.90
2018-11-02T23:53:25.855Z,97.40
2018-11-02T23:55:28.917Z,96.60
2018-11-02T23:57:34.429Z,97.30
2018-11-02T23:59:37.767Z,97.70
